VER24 BIKF-BGBW
Flight info
| Callsign | VER24 |
|---|---|
| Flight time | 1h 47m |
| Altitude | 38000 |
| Route | RALOV4B RALOV DCT 6330N DCT 6240N DCT UMSUK DCT NA |
| Aircraft | A343/H-SDE2E3FGHIJ4J5M1RWXY/LB1D1 |
Departure
| Time | 2026-04-15 21:53 |
|---|---|
| Airport | Keflavik International Airport (BIKF) |
Arrival
| Time | 2026-04-15 23:41 |
|---|---|
| Airport | Narsarsuaq Airport (BGBW) |
| Time | Latitude | Longitude | Altitude | Speed | Heading |
|---|---|---|---|---|---|
| 2026-04-15 21:32 | 63.99282 | -22.62449 | 165 ft | 0 kts | 2° |
| 2026-04-15 21:44 | 63.99281 | -22.62449 | 167 ft | 1 kts | 2° |
| 2026-04-15 21:44 | 63.99257 | -22.62450 | 162 ft | 4 kts | 1° |
| 2026-04-15 21:44 | 63.99230 | -22.62450 | 165 ft | 4 kts | 357° |
| 2026-04-15 21:45 | 63.99203 | -22.62445 | 164 ft | 4 kts | 353° |
| 2026-04-15 21:45 | 63.99176 | -22.62436 | 164 ft | 4 kts | 347° |
| 2026-04-15 21:45 | 63.99154 | -22.62423 | 164 ft | 1 kts | 340° |
| 2026-04-15 21:45 | 63.99150 | -22.62419 | 164 ft | 0 kts | 340° |
| 2026-04-15 21:48 | 63.99160 | -22.62461 | 164 ft | 4 kts | 288° |
| 2026-04-15 21:48 | 63.99167 | -22.62541 | 164 ft | 6 kts | 276° |
| 2026-04-15 21:49 | 63.99159 | -22.62629 | 165 ft | 7 kts | 252° |
| 2026-04-15 21:49 | 63.99132 | -22.62688 | 163 ft | 5 kts | 210° |
| 2026-04-15 21:49 | 63.99089 | -22.62730 | 163 ft | 8 kts | 200° |
| 2026-04-15 21:49 | 63.99028 | -22.62772 | 162 ft | 10 kts | 195° |
| 2026-04-15 21:50 | 63.98966 | -22.62810 | 159 ft | 8 kts | 195° |
| 2026-04-15 21:50 | 63.98906 | -22.62854 | 162 ft | 10 kts | 201° |
| 2026-04-15 21:50 | 63.98862 | -22.62970 | 162 ft | 10 kts | 249° |
| 2026-04-15 21:50 | 63.98851 | -22.63146 | 162 ft | 15 kts | 266° |
| 2026-04-15 21:51 | 63.98850 | -22.63457 | 163 ft | 25 kts | 270° |
| 2026-04-15 21:51 | 63.98852 | -22.63917 | 164 ft | 33 kts | 270° |
| 2026-04-15 21:51 | 63.98852 | -22.64515 | 166 ft | 42 kts | 270° |
| 2026-04-15 21:51 | 63.98846 | -22.65163 | 168 ft | 35 kts | 269° |
| 2026-04-15 21:52 | 63.98795 | -22.65457 | 169 ft | 13 kts | 201° |
| 2026-04-15 21:52 | 63.98703 | -22.65475 | 169 ft | 14 kts | 180° |
| 2026-04-15 21:52 | 63.98602 | -22.65467 | 169 ft | 16 kts | 178° |
| 2026-04-15 21:52 | 63.98511 | -22.65388 | 170 ft | 10 kts | 117° |
| 2026-04-15 21:53 | 63.98508 | -22.65083 | 167 ft | 51 kts | 90° |
| 2026-04-15 21:53 | 63.98506 | -22.63510 | 165 ft | 143 kts | 88° |
| 2026-04-15 21:53 | 63.98538 | -22.60782 | 566 ft | 186 kts | 91° |
| 2026-04-15 21:53 | 63.98540 | -22.57803 | 1702 ft | 197 kts | 94° |
| 2026-04-15 21:54 | 63.98521 | -22.54366 | 2522 ft | 231 kts | 94° |
| 2026-04-15 21:54 | 63.98507 | -22.50613 | 3595 ft | 241 kts | 93° |
| 2026-04-15 21:54 | 63.98710 | -22.46818 | 4746 ft | 252 kts | 73° |
| 2026-04-15 21:54 | 63.99780 | -22.43566 | 5873 ft | 268 kts | 38° |
| 2026-04-15 21:55 | 64.01550 | -22.42151 | 6964 ft | 279 kts | 6° |
| 2026-04-15 21:55 | 64.03505 | -22.42518 | 8057 ft | 287 kts | 346° |
| 2026-04-15 21:55 | 64.05323 | -22.44445 | 9157 ft | 292 kts | 322° |
| 2026-04-15 21:55 | 64.06701 | -22.47884 | 10037 ft | 302 kts | 298° |
| 2026-04-15 21:56 | 64.07385 | -22.52545 | 10495 ft | 321 kts | 276° |
| 2026-04-15 21:56 | 64.07617 | -22.57705 | 11189 ft | 332 kts | 271° |
| 2026-04-15 21:56 | 64.07787 | -22.63019 | 12065 ft | 338 kts | 271° |
| 2026-04-15 21:56 | 64.07970 | -22.68337 | 12983 ft | 343 kts | 272° |
| 2026-04-15 21:57 | 64.08181 | -22.73798 | 13861 ft | 348 kts | 272° |
| 2026-04-15 21:57 | 64.08367 | -22.79343 | 14679 ft | 352 kts | 269° |
| 2026-04-15 21:57 | 64.08264 | -22.84939 | 15512 ft | 354 kts | 258° |
| 2026-04-15 21:57 | 64.07754 | -22.90464 | 16346 ft | 357 kts | 252° |
| 2026-04-15 21:58 | 64.07109 | -22.95971 | 17191 ft | 361 kts | 251° |
| 2026-04-15 21:58 | 64.06434 | -23.01535 | 18005 ft | 365 kts | 251° |
| 2026-04-15 21:58 | 64.05756 | -23.07160 | 18735 ft | 370 kts | 251° |
| 2026-04-15 21:58 | 64.05075 | -23.12860 | 19493 ft | 374 kts | 252° |
| 2026-04-15 21:59 | 64.04392 | -23.18611 | 20238 ft | 378 kts | 252° |
| 2026-04-15 21:59 | 64.03704 | -23.24423 | 20948 ft | 381 kts | 252° |
| 2026-04-15 21:59 | 64.03017 | -23.30215 | 21663 ft | 385 kts | 252° |
| 2026-04-15 21:59 | 64.02313 | -23.36149 | 22364 ft | 389 kts | 252° |
| 2026-04-15 22:00 | 64.01600 | -23.42123 | 23062 ft | 393 kts | 252° |
| 2026-04-15 22:00 | 64.00875 | -23.48174 | 23586 ft | 397 kts | 253° |
| 2026-04-15 22:00 | 64.00142 | -23.54272 | 24119 ft | 401 kts | 252° |
| 2026-04-15 22:00 | 63.99401 | -23.60426 | 24639 ft | 405 kts | 252° |
| 2026-04-15 22:01 | 63.98650 | -23.66636 | 25173 ft | 408 kts | 252° |
| 2026-04-15 22:01 | 63.97900 | -23.72808 | 25683 ft | 412 kts | 252° |
| 2026-04-15 22:01 | 63.97131 | -23.79121 | 26185 ft | 415 kts | 252° |
| 2026-04-15 22:01 | 63.96353 | -23.85482 | 26675 ft | 419 kts | 252° |
| 2026-04-15 22:02 | 63.95566 | -23.91883 | 27160 ft | 422 kts | 252° |
| 2026-04-15 22:02 | 63.94769 | -23.98352 | 27615 ft | 426 kts | 252° |
| 2026-04-15 22:02 | 63.93964 | -24.04875 | 27999 ft | 432 kts | 253° |
| 2026-04-15 22:02 | 63.93311 | -24.11579 | 28445 ft | 436 kts | 258° |
| 2026-04-15 22:03 | 63.92836 | -24.18416 | 28918 ft | 439 kts | 260° |
| 2026-04-15 22:03 | 63.92403 | -24.25221 | 29364 ft | 442 kts | 261° |
| 2026-04-15 22:03 | 63.91961 | -24.32153 | 29767 ft | 445 kts | 260° |
| 2026-04-15 22:03 | 63.91507 | -24.39133 | 30087 ft | 448 kts | 260° |
| 2026-04-15 22:04 | 63.91042 | -24.46169 | 30372 ft | 453 kts | 259° |
| 2026-04-15 22:04 | 63.90567 | -24.53255 | 30682 ft | 456 kts | 259° |
| 2026-04-15 22:04 | 63.90082 | -24.60397 | 31042 ft | 458 kts | 259° |
| 2026-04-15 22:04 | 63.89590 | -24.67572 | 31368 ft | 461 kts | 259° |
| 2026-04-15 22:05 | 63.89094 | -24.74759 | 31783 ft | 461 kts | 259° |
| 2026-04-15 22:05 | 63.88592 | -24.81937 | 32259 ft | 460 kts | 258° |
| 2026-04-15 22:05 | 63.87926 | -24.88923 | 32679 ft | 458 kts | 252° |
| 2026-04-15 22:05 | 63.87040 | -24.95865 | 33043 ft | 459 kts | 250° |
| 2026-04-15 22:06 | 63.86054 | -25.02751 | 33466 ft | 458 kts | 249° |
| 2026-04-15 22:06 | 63.85017 | -25.09584 | 33798 ft | 458 kts | 248° |
| 2026-04-15 22:06 | 63.83958 | -25.16395 | 34131 ft | 458 kts | 248° |
| 2026-04-15 22:06 | 63.82894 | -25.23191 | 34487 ft | 457 kts | 248° |
| 2026-04-15 22:07 | 63.81834 | -25.29971 | 34820 ft | 457 kts | 248° |
| 2026-04-15 22:07 | 63.80775 | -25.36768 | 35126 ft | 457 kts | 248° |
| 2026-04-15 22:07 | 63.79721 | -25.43558 | 35471 ft | 457 kts | 248° |
| 2026-04-15 22:07 | 63.78682 | -25.50254 | 35778 ft | 457 kts | 248° |
| 2026-04-15 22:08 | 63.77629 | -25.57043 | 36098 ft | 457 kts | 248° |
| 2026-04-15 22:08 | 63.76574 | -25.63826 | 36408 ft | 457 kts | 248° |
| 2026-04-15 22:08 | 63.75519 | -25.70592 | 36736 ft | 457 kts | 248° |
| 2026-04-15 22:08 | 63.74458 | -25.77366 | 37055 ft | 457 kts | 248° |
| 2026-04-15 22:09 | 63.73396 | -25.84124 | 37338 ft | 458 kts | 248° |
| 2026-04-15 22:09 | 63.71229 | -25.97816 | 37381 ft | 468 kts | 248° |
| 2026-04-15 22:10 | 63.69046 | -26.11521 | 37387 ft | 466 kts | 248° |
| 2026-04-15 22:10 | 63.66845 | -26.25243 | 37370 ft | 465 kts | 248° |
| 2026-04-15 22:11 | 63.64633 | -26.38923 | 37379 ft | 465 kts | 248° |
| 2026-04-15 22:11 | 63.62405 | -26.52596 | 37364 ft | 466 kts | 247° |
| 2026-04-15 22:12 | 63.60178 | -26.66163 | 37367 ft | 466 kts | 247° |
| 2026-04-15 22:12 | 63.57925 | -26.79793 | 37353 ft | 466 kts | 248° |
| 2026-04-15 22:13 | 63.55658 | -26.93403 | 37357 ft | 466 kts | 247° |
| 2026-04-15 22:13 | 63.53377 | -27.06997 | 37353 ft | 465 kts | 246° |
| 2026-04-15 22:14 | 63.51084 | -27.20555 | 37347 ft | 465 kts | 247° |
| 2026-04-15 22:14 | 63.48797 | -27.33967 | 37348 ft | 464 kts | 247° |
| 2026-04-15 22:15 | 63.46484 | -27.47448 | 37348 ft | 464 kts | 247° |
| 2026-04-15 22:15 | 63.44158 | -27.60916 | 37348 ft | 464 kts | 247° |
| 2026-04-15 22:16 | 63.41822 | -27.74353 | 37356 ft | 464 kts | 247° |
| 2026-04-15 22:16 | 63.39491 | -27.87674 | 37356 ft | 463 kts | 246° |
| 2026-04-15 22:17 | 63.37140 | -28.01021 | 37368 ft | 462 kts | 247° |
| 2026-04-15 22:17 | 63.34780 | -28.14321 | 37367 ft | 462 kts | 246° |
| 2026-04-15 22:18 | 63.32407 | -28.27600 | 37376 ft | 462 kts | 246° |
| 2026-04-15 22:18 | 63.30021 | -28.40855 | 37376 ft | 462 kts | 246° |
| 2026-04-15 22:19 | 63.27641 | -28.53991 | 37385 ft | 461 kts | 246° |
| 2026-04-15 22:19 | 63.25236 | -28.67165 | 37384 ft | 459 kts | 246° |
| 2026-04-15 22:20 | 63.22825 | -28.80286 | 37398 ft | 459 kts | 246° |
| 2026-04-15 22:20 | 63.20402 | -28.93384 | 37398 ft | 459 kts | 246° |
| 2026-04-15 22:21 | 63.17985 | -29.06370 | 37413 ft | 459 kts | 246° |
| 2026-04-15 22:21 | 63.15538 | -29.19434 | 37416 ft | 459 kts | 246° |
| 2026-04-15 22:22 | 63.13081 | -29.32457 | 37425 ft | 459 kts | 246° |
| 2026-04-15 22:22 | 63.10609 | -29.45473 | 37426 ft | 459 kts | 245° |
| 2026-04-15 22:23 | 63.08127 | -29.58462 | 37440 ft | 459 kts | 245° |
| 2026-04-15 22:23 | 63.05650 | -29.71345 | 37440 ft | 459 kts | 245° |
| 2026-04-15 22:24 | 63.03144 | -29.84296 | 37440 ft | 459 kts | 245° |
| 2026-04-15 22:24 | 63.00694 | -29.97276 | 37453 ft | 460 kts | 250° |
| 2026-04-15 22:25 | 62.99286 | -30.11005 | 37457 ft | 461 kts | 260° |
| 2026-04-15 22:25 | 62.98427 | -30.24872 | 37467 ft | 461 kts | 262° |
| 2026-04-15 22:26 | 62.97622 | -30.38858 | 37476 ft | 461 kts | 261° |
| 2026-04-15 22:26 | 62.96762 | -30.52828 | 37487 ft | 460 kts | 261° |
| 2026-04-15 22:27 | 62.95855 | -30.66750 | 37489 ft | 460 kts | 260° |
| 2026-04-15 22:27 | 62.94926 | -30.80539 | 37501 ft | 459 kts | 260° |
| 2026-04-15 22:28 | 62.93979 | -30.94376 | 37501 ft | 458 kts | 261° |
| 2026-04-15 22:28 | 62.93027 | -31.08211 | 37500 ft | 458 kts | 260° |
| 2026-04-15 22:29 | 62.92064 | -31.22045 | 37520 ft | 458 kts | 260° |
| 2026-04-15 22:29 | 62.91088 | -31.35765 | 37520 ft | 458 kts | 260° |
| 2026-04-15 22:30 | 62.90088 | -31.49580 | 37532 ft | 458 kts | 260° |
| 2026-04-15 22:30 | 62.89080 | -31.63340 | 37535 ft | 457 kts | 259° |
| 2026-04-15 22:31 | 62.88059 | -31.77092 | 37534 ft | 457 kts | 259° |
| 2026-04-15 22:31 | 62.87031 | -31.90732 | 37534 ft | 457 kts | 259° |
| 2026-04-15 22:32 | 62.85988 | -32.04404 | 37543 ft | 448 kts | 259° |
| 2026-04-15 22:32 | 62.85474 | -32.11045 | 37556 ft | 437 kts | 259° |
| 2026-04-15 22:32 | 62.84964 | -32.17577 | 37554 ft | 433 kts | 259° |
| 2026-04-15 22:33 | 62.83937 | -32.30556 | 37547 ft | 433 kts | 259° |
| 2026-04-15 22:33 | 62.82910 | -32.43444 | 37568 ft | 433 kts | 258° |
| 2026-04-15 22:34 | 62.81866 | -32.56417 | 37563 ft | 433 kts | 258° |
| 2026-04-15 22:34 | 62.80812 | -32.69377 | 37575 ft | 433 kts | 259° |
| 2026-04-15 22:35 | 62.79745 | -32.82338 | 37581 ft | 433 kts | 258° |
| 2026-04-15 22:35 | 62.78666 | -32.95296 | 37582 ft | 433 kts | 258° |
| 2026-04-15 22:36 | 62.77585 | -33.08138 | 37593 ft | 433 kts | 258° |
| 2026-04-15 22:36 | 62.76484 | -33.21049 | 37592 ft | 432 kts | 258° |
| 2026-04-15 22:37 | 62.75372 | -33.33948 | 37601 ft | 432 kts | 258° |
| 2026-04-15 22:37 | 62.74248 | -33.46835 | 37603 ft | 433 kts | 258° |
| 2026-04-15 22:38 | 62.73119 | -33.59634 | 37644 ft | 432 kts | 258° |
| 2026-04-15 22:38 | 62.72546 | -33.66081 | 37811 ft | 436 kts | 257° |
| 2026-04-15 22:38 | 62.71963 | -33.72598 | 37932 ft | 440 kts | 257° |
| 2026-04-15 22:38 | 62.71372 | -33.79177 | 38071 ft | 444 kts | 257° |
| 2026-04-15 22:39 | 62.70775 | -33.85793 | 38328 ft | 445 kts | 257° |
| 2026-04-15 22:39 | 62.70175 | -33.92408 | 38590 ft | 445 kts | 257° |
| 2026-04-15 22:39 | 62.69571 | -33.99026 | 38803 ft | 446 kts | 257° |
| 2026-04-15 22:39 | 62.68970 | -34.05558 | 39039 ft | 446 kts | 257° |
| 2026-04-15 22:40 | 62.68359 | -34.12169 | 39294 ft | 445 kts | 257° |
| 2026-04-15 22:40 | 62.67746 | -34.18761 | 39523 ft | 445 kts | 257° |
| 2026-04-15 22:40 | 62.67127 | -34.25368 | 39759 ft | 445 kts | 257° |
| 2026-04-15 22:41 | 62.65886 | -34.38512 | 40264 ft | 443 kts | 257° |
| 2026-04-15 22:41 | 62.65260 | -34.45084 | 40467 ft | 444 kts | 257° |
| 2026-04-15 22:41 | 62.64630 | -34.51659 | 40622 ft | 445 kts | 257° |
| 2026-04-15 22:41 | 62.63998 | -34.58236 | 40648 ft | 442 kts | 257° |
| 2026-04-15 22:42 | 62.62745 | -34.71160 | 40649 ft | 438 kts | 257° |
| 2026-04-15 22:42 | 62.61481 | -34.84076 | 40650 ft | 437 kts | 257° |
| 2026-04-15 22:43 | 62.60205 | -34.96991 | 40658 ft | 437 kts | 257° |
| 2026-04-15 22:43 | 62.58916 | -35.09881 | 40659 ft | 437 kts | 256° |
| 2026-04-15 22:44 | 62.57625 | -35.22679 | 40673 ft | 437 kts | 256° |
| 2026-04-15 22:44 | 62.56315 | -35.35551 | 40672 ft | 437 kts | 256° |
| 2026-04-15 22:45 | 62.54995 | -35.48404 | 40677 ft | 436 kts | 256° |
| 2026-04-15 22:45 | 62.53669 | -35.61204 | 40681 ft | 435 kts | 256° |
| 2026-04-15 22:46 | 62.52338 | -35.73912 | 40672 ft | 435 kts | 256° |
| 2026-04-15 22:46 | 62.50986 | -35.86680 | 40684 ft | 436 kts | 256° |
| 2026-04-15 22:47 | 62.49623 | -35.99446 | 40688 ft | 435 kts | 256° |
| 2026-04-15 22:47 | 62.48247 | -36.12211 | 40695 ft | 435 kts | 256° |
| 2026-04-15 22:48 | 62.46864 | -36.24918 | 40698 ft | 434 kts | 256° |
| 2026-04-15 22:48 | 62.45482 | -36.37510 | 40703 ft | 433 kts | 255° |
| 2026-04-15 22:49 | 62.44078 | -36.50171 | 40705 ft | 434 kts | 255° |
| 2026-04-15 22:49 | 62.42663 | -36.62815 | 40708 ft | 434 kts | 255° |
| 2026-04-15 22:50 | 62.41236 | -36.75457 | 40716 ft | 433 kts | 255° |
| 2026-04-15 22:50 | 62.39807 | -36.88003 | 40719 ft | 434 kts | 255° |
| 2026-04-15 22:51 | 62.38359 | -37.00609 | 40726 ft | 433 kts | 255° |
| 2026-04-15 22:51 | 62.36899 | -37.13210 | 40724 ft | 433 kts | 255° |
| 2026-04-15 22:52 | 62.35427 | -37.25801 | 40725 ft | 434 kts | 255° |
| 2026-04-15 22:52 | 62.33945 | -37.38368 | 40731 ft | 433 kts | 255° |
| 2026-04-15 22:53 | 62.32459 | -37.50859 | 40730 ft | 433 kts | 254° |
| 2026-04-15 22:53 | 62.30955 | -37.63396 | 40745 ft | 433 kts | 254° |
| 2026-04-15 22:54 | 62.29442 | -37.75904 | 40745 ft | 432 kts | 254° |
| 2026-04-15 22:54 | 62.27916 | -37.88406 | 40749 ft | 432 kts | 254° |
| 2026-04-15 22:55 | 62.26391 | -38.00797 | 40753 ft | 432 kts | 253° |
| 2026-04-15 22:55 | 62.24846 | -38.13254 | 40752 ft | 432 kts | 253° |
| 2026-04-15 22:56 | 62.23289 | -38.25710 | 40754 ft | 432 kts | 253° |
| 2026-04-15 22:56 | 62.21722 | -38.38134 | 40761 ft | 432 kts | 253° |
| 2026-04-15 22:57 | 62.20154 | -38.50464 | 40764 ft | 432 kts | 253° |
| 2026-04-15 22:57 | 62.18598 | -38.62613 | 40763 ft | 431 kts | 253° |
| 2026-04-15 22:58 | 62.16998 | -38.74996 | 40764 ft | 431 kts | 253° |
| 2026-04-15 22:58 | 62.15389 | -38.87354 | 40771 ft | 431 kts | 253° |
| 2026-04-15 22:59 | 62.13780 | -38.99619 | 40768 ft | 431 kts | 253° |
| 2026-04-15 22:59 | 62.12148 | -39.11957 | 40785 ft | 432 kts | 253° |
| 2026-04-15 23:00 | 62.10503 | -39.24305 | 40785 ft | 432 kts | 253° |
| 2026-04-15 23:00 | 62.08846 | -39.36646 | 40785 ft | 432 kts | 253° |
| 2026-04-15 23:01 | 62.07188 | -39.48890 | 40782 ft | 433 kts | 252° |
| 2026-04-15 23:01 | 62.05508 | -39.61210 | 40783 ft | 433 kts | 252° |
| 2026-04-15 23:02 | 62.03817 | -39.73518 | 40788 ft | 432 kts | 252° |
| 2026-04-15 23:02 | 62.02116 | -39.85809 | 40795 ft | 432 kts | 252° |
| 2026-04-15 23:03 | 62.00414 | -39.98003 | 40799 ft | 433 kts | 252° |
| 2026-04-15 23:03 | 61.98740 | -40.10292 | 40620 ft | 432 kts | 253° |
| 2026-04-15 23:04 | 61.97938 | -40.16464 | 40386 ft | 434 kts | 253° |
| 2026-04-15 23:04 | 61.97139 | -40.22662 | 40141 ft | 435 kts | 253° |
| 2026-04-15 23:04 | 61.96339 | -40.28869 | 39930 ft | 436 kts | 253° |
| 2026-04-15 23:04 | 61.95534 | -40.35076 | 39696 ft | 436 kts | 253° |
| 2026-04-15 23:05 | 61.94724 | -40.41275 | 39459 ft | 435 kts | 253° |
| 2026-04-15 23:05 | 61.93918 | -40.47386 | 39259 ft | 436 kts | 253° |
| 2026-04-15 23:05 | 61.93096 | -40.53585 | 39038 ft | 436 kts | 253° |
| 2026-04-15 23:05 | 61.92272 | -40.59769 | 38818 ft | 436 kts | 253° |
| 2026-04-15 23:06 | 61.91443 | -40.65958 | 38601 ft | 436 kts | 252° |
| 2026-04-15 23:06 | 61.90610 | -40.72147 | 38355 ft | 436 kts | 252° |
| 2026-04-15 23:06 | 61.89776 | -40.78323 | 38077 ft | 436 kts | 252° |
| 2026-04-15 23:06 | 61.88938 | -40.84506 | 37803 ft | 436 kts | 252° |
| 2026-04-15 23:07 | 61.88100 | -40.90673 | 37541 ft | 436 kts | 252° |
| 2026-04-15 23:07 | 61.87260 | -40.96831 | 37271 ft | 435 kts | 252° |
| 2026-04-15 23:07 | 61.86416 | -41.02993 | 37019 ft | 436 kts | 252° |
| 2026-04-15 23:07 | 61.85581 | -41.09068 | 36760 ft | 435 kts | 252° |
| 2026-04-15 23:08 | 61.84731 | -41.15224 | 36510 ft | 435 kts | 252° |
| 2026-04-15 23:08 | 61.83880 | -41.21372 | 36252 ft | 435 kts | 252° |
| 2026-04-15 23:08 | 61.83026 | -41.27515 | 36004 ft | 435 kts | 252° |
| 2026-04-15 23:08 | 61.82171 | -41.33646 | 35768 ft | 435 kts | 252° |
| 2026-04-15 23:09 | 61.81311 | -41.39781 | 35525 ft | 435 kts | 252° |
| 2026-04-15 23:09 | 61.80447 | -41.45920 | 35287 ft | 435 kts | 251° |
| 2026-04-15 23:09 | 61.79580 | -41.52056 | 35041 ft | 435 kts | 251° |
| 2026-04-15 23:09 | 61.78724 | -41.58093 | 34816 ft | 435 kts | 251° |
| 2026-04-15 23:10 | 61.77853 | -41.64217 | 34575 ft | 435 kts | 251° |
| 2026-04-15 23:10 | 61.76979 | -41.70334 | 34336 ft | 435 kts | 251° |
| 2026-04-15 23:10 | 61.76102 | -41.76445 | 34124 ft | 435 kts | 251° |
| 2026-04-15 23:10 | 61.75223 | -41.82552 | 33890 ft | 435 kts | 251° |
| 2026-04-15 23:11 | 61.74342 | -41.88649 | 33630 ft | 435 kts | 251° |
| 2026-04-15 23:11 | 61.73460 | -41.94735 | 33359 ft | 435 kts | 250° |
| 2026-04-15 23:11 | 61.72571 | -42.00849 | 33082 ft | 435 kts | 250° |
| 2026-04-15 23:11 | 61.71691 | -42.06877 | 32822 ft | 436 kts | 250° |
| 2026-04-15 23:12 | 61.70798 | -42.12969 | 32541 ft | 436 kts | 250° |
| 2026-04-15 23:12 | 61.69901 | -42.19074 | 32280 ft | 435 kts | 250° |
| 2026-04-15 23:12 | 61.69003 | -42.25161 | 32011 ft | 435 kts | 250° |
| 2026-04-15 23:12 | 61.68104 | -42.31234 | 31755 ft | 435 kts | 250° |
| 2026-04-15 23:13 | 61.67201 | -42.37310 | 31491 ft | 434 kts | 250° |
| 2026-04-15 23:13 | 61.66297 | -42.43367 | 31240 ft | 434 kts | 250° |
| 2026-04-15 23:13 | 61.65392 | -42.49414 | 30975 ft | 432 kts | 249° |
| 2026-04-15 23:13 | 61.64501 | -42.55346 | 30729 ft | 430 kts | 249° |
| 2026-04-15 23:14 | 61.63601 | -42.61317 | 30488 ft | 427 kts | 249° |
| 2026-04-15 23:14 | 61.62702 | -42.67252 | 30242 ft | 425 kts | 249° |
| 2026-04-15 23:14 | 61.61806 | -42.73148 | 29998 ft | 422 kts | 249° |
| 2026-04-15 23:14 | 61.60912 | -42.79004 | 29737 ft | 420 kts | 249° |
| 2026-04-15 23:15 | 61.60019 | -42.84827 | 29446 ft | 418 kts | 249° |
| 2026-04-15 23:15 | 61.59129 | -42.90613 | 29146 ft | 416 kts | 249° |
| 2026-04-15 23:15 | 61.58240 | -42.96370 | 28868 ft | 414 kts | 249° |
| 2026-04-15 23:15 | 61.57353 | -43.02096 | 28587 ft | 412 kts | 249° |
| 2026-04-15 23:16 | 61.56480 | -43.07723 | 28298 ft | 410 kts | 249° |
| 2026-04-15 23:16 | 61.55596 | -43.13397 | 28011 ft | 408 kts | 249° |
| 2026-04-15 23:16 | 61.54714 | -43.19041 | 27730 ft | 407 kts | 249° |
| 2026-04-15 23:16 | 61.53833 | -43.24664 | 27455 ft | 405 kts | 249° |
| 2026-04-15 23:17 | 61.52957 | -43.30239 | 27127 ft | 399 kts | 249° |
| 2026-04-15 23:17 | 61.52094 | -43.35719 | 26604 ft | 394 kts | 249° |
| 2026-04-15 23:17 | 61.51236 | -43.41135 | 26051 ft | 390 kts | 249° |
| 2026-04-15 23:17 | 61.50382 | -43.46510 | 25541 ft | 387 kts | 249° |
| 2026-04-15 23:18 | 61.49531 | -43.51838 | 24995 ft | 385 kts | 249° |
| 2026-04-15 23:18 | 61.48692 | -43.57069 | 24462 ft | 382 kts | 249° |
| 2026-04-15 23:18 | 61.47849 | -43.62313 | 23935 ft | 379 kts | 249° |
| 2026-04-15 23:18 | 61.47009 | -43.67527 | 23407 ft | 377 kts | 249° |
| 2026-04-15 23:19 | 61.46174 | -43.72698 | 22822 ft | 374 kts | 249° |
| 2026-04-15 23:19 | 61.45347 | -43.77811 | 22305 ft | 369 kts | 249° |
| 2026-04-15 23:19 | 61.44527 | -43.82868 | 21793 ft | 364 kts | 249° |
| 2026-04-15 23:19 | 61.43717 | -43.87846 | 21288 ft | 360 kts | 250° |
| 2026-04-15 23:20 | 61.42912 | -43.92775 | 20791 ft | 357 kts | 249° |
| 2026-04-15 23:20 | 61.42114 | -43.97657 | 20276 ft | 353 kts | 250° |
| 2026-04-15 23:20 | 61.41324 | -44.02474 | 19825 ft | 350 kts | 250° |
| 2026-04-15 23:20 | 61.40547 | -44.07195 | 19331 ft | 347 kts | 250° |
| 2026-04-15 23:21 | 61.39764 | -44.11940 | 18835 ft | 344 kts | 249° |
| 2026-04-15 23:21 | 61.38987 | -44.16639 | 18350 ft | 342 kts | 250° |
| 2026-04-15 23:21 | 61.38211 | -44.21320 | 17808 ft | 340 kts | 250° |
| 2026-04-15 23:21 | 61.37438 | -44.25962 | 17294 ft | 337 kts | 250° |
| 2026-04-15 23:22 | 61.36672 | -44.30548 | 16828 ft | 334 kts | 250° |
| 2026-04-15 23:22 | 61.35913 | -44.35091 | 16348 ft | 331 kts | 250° |
| 2026-04-15 23:22 | 61.35157 | -44.39606 | 15851 ft | 329 kts | 250° |
| 2026-04-15 23:22 | 61.34414 | -44.44031 | 15371 ft | 327 kts | 250° |
| 2026-04-15 23:23 | 61.33663 | -44.48499 | 14883 ft | 326 kts | 250° |
| 2026-04-15 23:23 | 61.32914 | -44.52945 | 14394 ft | 325 kts | 250° |
| 2026-04-15 23:23 | 61.32166 | -44.57382 | 13932 ft | 324 kts | 250° |
| 2026-04-15 23:23 | 61.31421 | -44.61788 | 13415 ft | 323 kts | 250° |
| 2026-04-15 23:24 | 61.30677 | -44.66177 | 12921 ft | 320 kts | 250° |
| 2026-04-15 23:24 | 61.29937 | -44.70530 | 12451 ft | 318 kts | 250° |
| 2026-04-15 23:24 | 61.29201 | -44.74849 | 11985 ft | 315 kts | 250° |
| 2026-04-15 23:24 | 61.28471 | -44.79125 | 11508 ft | 313 kts | 250° |
| 2026-04-15 23:25 | 61.27752 | -44.83322 | 11042 ft | 311 kts | 250° |
| 2026-04-15 23:25 | 61.27027 | -44.87548 | 10602 ft | 308 kts | 250° |
| 2026-04-15 23:25 | 61.26306 | -44.91681 | 10376 ft | 299 kts | 250° |
| 2026-04-15 23:25 | 61.25595 | -44.95652 | 10230 ft | 288 kts | 249° |
| 2026-04-15 23:26 | 61.24900 | -44.99471 | 10094 ft | 278 kts | 249° |
| 2026-04-15 23:26 | 61.24222 | -45.03161 | 9974 ft | 269 kts | 249° |
| 2026-04-15 23:26 | 61.23564 | -45.06729 | 9859 ft | 260 kts | 249° |
| 2026-04-15 23:26 | 61.22934 | -45.10131 | 9750 ft | 252 kts | 249° |
| 2026-04-15 23:27 | 61.22319 | -45.13454 | 9648 ft | 242 kts | 249° |
| 2026-04-15 23:27 | 61.21726 | -45.16660 | 9541 ft | 234 kts | 249° |
| 2026-04-15 23:27 | 61.21153 | -45.19751 | 9442 ft | 225 kts | 249° |
| 2026-04-15 23:27 | 61.20607 | -45.22699 | 9395 ft | 211 kts | 249° |
| 2026-04-15 23:28 | 61.20098 | -45.25429 | 9281 ft | 195 kts | 249° |
| 2026-04-15 23:28 | 61.19632 | -45.27923 | 9140 ft | 176 kts | 249° |
| 2026-04-15 23:28 | 61.19348 | -45.29435 | 9043 ft | 165 kts | 249° |
| 2026-04-15 23:28 | 61.18949 | -45.31545 | 8921 ft | 150 kts | 248° |
| 2026-04-15 23:29 | 61.18473 | -45.34061 | 8721 ft | 135 kts | 248° |
| 2026-04-15 23:29 | 61.18136 | -45.35847 | 8476 ft | 132 kts | 247° |
| 2026-04-15 23:29 | 61.17806 | -45.37608 | 8191 ft | 131 kts | 248° |
| 2026-04-15 23:29 | 61.17477 | -45.39365 | 7899 ft | 130 kts | 247° |
| 2026-04-15 23:30 | 61.17132 | -45.41094 | 7599 ft | 130 kts | 243° |
| 2026-04-15 23:30 | 61.16724 | -45.42758 | 7331 ft | 129 kts | 241° |
| 2026-04-15 23:30 | 61.16449 | -45.43849 | 7142 ft | 129 kts | 241° |
| 2026-04-15 23:30 | 61.16033 | -45.45495 | 6862 ft | 129 kts | 241° |
| 2026-04-15 23:31 | 61.15473 | -45.47702 | 6501 ft | 132 kts | 241° |
| 2026-04-15 23:31 | 61.15048 | -45.49379 | 6281 ft | 132 kts | 241° |
| 2026-04-15 23:31 | 61.14621 | -45.51063 | 6014 ft | 132 kts | 240° |
| 2026-04-15 23:31 | 61.14194 | -45.52746 | 5747 ft | 132 kts | 240° |
| 2026-04-15 23:32 | 61.13912 | -45.53856 | 5581 ft | 132 kts | 240° |
| 2026-04-15 23:32 | 61.13488 | -45.55528 | 5340 ft | 130 kts | 240° |
| 2026-04-15 23:32 | 61.13069 | -45.57175 | 5108 ft | 129 kts | 240° |
| 2026-04-15 23:32 | 61.12652 | -45.58815 | 4878 ft | 129 kts | 239° |
| 2026-04-15 23:33 | 61.12100 | -45.60979 | 4588 ft | 128 kts | 239° |
| 2026-04-15 23:33 | 61.11820 | -45.62076 | 4437 ft | 127 kts | 239° |
| 2026-04-15 23:33 | 61.11273 | -45.64218 | 4131 ft | 127 kts | 239° |
| 2026-04-15 23:33 | 61.10995 | -45.65305 | 3973 ft | 127 kts | 240° |
| 2026-04-15 23:34 | 61.10589 | -45.66891 | 3733 ft | 126 kts | 240° |
| 2026-04-15 23:34 | 61.10181 | -45.68489 | 3518 ft | 125 kts | 239° |
| 2026-04-15 23:34 | 61.09764 | -45.70066 | 3500 ft | 125 kts | 236° |
| 2026-04-15 23:36 | 61.05385 | -45.70558 | 3487 ft | 125 kts | 130° |
| 2026-04-15 23:36 | 61.04973 | -45.68974 | 3504 ft | 127 kts | 111° |
| 2026-04-15 23:36 | 61.04829 | -45.67173 | 3474 ft | 129 kts | 92° |
| 2026-04-15 23:36 | 61.04983 | -45.65349 | 3420 ft | 130 kts | 72° |
| 2026-04-15 23:37 | 61.05430 | -45.63708 | 3395 ft | 133 kts | 52° |
| 2026-04-15 23:37 | 61.06129 | -45.62453 | 3344 ft | 134 kts | 31° |
| 2026-04-15 23:37 | 61.06998 | -45.61768 | 3307 ft | 134 kts | 11° |
| 2026-04-15 23:37 | 61.07926 | -45.61723 | 3283 ft | 135 kts | 354° |
| 2026-04-15 23:38 | 61.08881 | -45.61770 | 2979 ft | 141 kts | 9° |
| 2026-04-15 23:38 | 61.09705 | -45.60751 | 2630 ft | 143 kts | 55° |
| 2026-04-15 23:38 | 61.10104 | -45.58902 | 2347 ft | 139 kts | 68° |
| 2026-04-15 23:38 | 61.10565 | -45.57192 | 2136 ft | 135 kts | 59° |
| 2026-04-15 23:39 | 61.11076 | -45.55582 | 1905 ft | 134 kts | 57° |
| 2026-04-15 23:39 | 61.11594 | -45.53997 | 1661 ft | 132 kts | 57° |
| 2026-04-15 23:39 | 61.12108 | -45.52433 | 1426 ft | 132 kts | 56° |
| 2026-04-15 23:39 | 61.12621 | -45.50861 | 1197 ft | 132 kts | 57° |
| 2026-04-15 23:40 | 61.13122 | -45.49278 | 996 ft | 131 kts | 57° |
| 2026-04-15 23:40 | 61.13687 | -45.47797 | 824 ft | 131 kts | 49° |
| 2026-04-15 23:40 | 61.14275 | -45.46390 | 643 ft | 128 kts | 49° |
| 2026-04-15 23:40 | 61.14842 | -45.45018 | 406 ft | 127 kts | 49° |
| 2026-04-15 23:41 | 61.15441 | -45.43705 | 125 ft | 123 kts | 33° |
| 2026-04-15 23:41 | 61.15983 | -45.42767 | 61 ft | 74 kts | 39° |
| 2026-04-15 23:41 | 61.16290 | -45.42219 | 89 ft | 36 kts | 41° |
| 2026-04-15 23:41 | 61.16372 | -45.41907 | 85 ft | 22 kts | 116° |
| 2026-04-15 23:42 | 61.16341 | -45.41825 | 66 ft | 2 kts | 135° |
| 2026-04-15 23:42 | 61.16323 | -45.41782 | 64 ft | 5 kts | 128° |
| 2026-04-15 23:42 | 61.16318 | -45.41769 | 64 ft | 0 kts | 130° |
| 2026-04-15 23:42 | 61.16318 | -45.41768 | 64 ft | 1 kts | 130° |
| 2026-04-15 23:43 | 61.16316 | -45.41763 | 64 ft | 0 kts | 129° |
| 2026-04-15 23:43 | 61.16314 | -45.41756 | 64 ft | 0 kts | 121° |
| 2026-04-15 23:43 | 61.16314 | -45.41755 | 64 ft | 0 kts | 123° |
| 2026-04-15 23:43 | 61.16313 | -45.41755 | 64 ft | 0 kts | 124° |
| 2026-04-15 23:44 | 61.16311 | -45.41750 | 64 ft | 1 kts | 131° |
| 2026-04-15 23:44 | 61.16301 | -45.41741 | 64 ft | 2 kts | 154° |
| 2026-04-15 23:44 | 61.16278 | -45.41742 | 68 ft | 2 kts | 189° |
| 2026-04-15 23:45 | 61.16263 | -45.41755 | 68 ft | 3 kts | 206° |
| 2026-04-15 23:45 | 61.16247 | -45.41776 | 69 ft | 0 kts | 214° |